sensor_id;sensor_type;location;lat;lon;timestamp;pressure;altitude;pressure_sealevel;temperature;humidity
20987;BME280;10652;50.306;8.570;2023-04-12T00:01:18;97320.41;;;8.41;56.66
20987;BME280;10652;50.306;8.570;2023-04-12T00:05:21;97315.16;;;8.41;57.08
20987;BME280;10652;50.306;8.570;2023-04-12T00:09:28;97301.16;;;8.42;57.46
20987;BME280;10652;50.306;8.570;2023-04-12T00:13:31;97295.94;;;8.42;57.52
20987;BME280;10652;50.306;8.570;2023-04-12T00:17:33;97287.47;;;8.37;57.97
20987;BME280;10652;50.306;8.570;2023-04-12T00:21:35;97276.25;;;8.35;58.36
20987;BME280;10652;50.306;8.570;2023-04-12T00:25:37;97271.94;;;8.34;58.60
20987;BME280;10652;50.306;8.570;2023-04-12T00:29:40;97273.63;;;8.35;58.81
20987;BME280;10652;50.306;8.570;2023-04-12T00:33:43;97273.75;;;8.32;58.90
20987;BME280;10652;50.306;8.570;2023-04-12T00:37:45;97259.81;;;8.32;58.99
20987;BME280;10652;50.306;8.570;2023-04-12T00:41:47;97249.59;;;8.27;59.11
20987;BME280;10652;50.306;8.570;2023-04-12T00:45:49;97250.53;;;8.26;59.36
20987;BME280;10652;50.306;8.570;2023-04-12T00:49:51;97260.22;;;8.24;59.39
20987;BME280;10652;50.306;8.570;2023-04-12T00:53:55;97263.63;;;8.26;59.80
20987;BME280;10652;50.306;8.570;2023-04-12T00:58:00;97255.06;;;8.22;60.37
20987;BME280;10652;50.306;8.570;2023-04-12T01:02:02;97256.13;;;8.18;61.92
20987;BME280;10652;50.306;8.570;2023-04-12T01:06:12;97256.56;;;8.09;63.93
20987;BME280;10652;50.306;8.570;2023-04-12T01:10:27;97247.28;;;8.04;65.90
20987;BME280;10652;50.306;8.570;2023-04-12T01:19:05;97228.34;;;7.99;68.70
20987;BME280;10652;50.306;8.570;2023-04-12T01:23:52;97225.78;;;7.97;69.87
20987;BME280;10652;50.306;8.570;2023-04-12T01:28:02;97210.56;;;7.88;71.16
20987;BME280;10652;50.306;8.570;2023-04-12T01:32:06;97207.50;;;7.80;72.12
20987;BME280;10652;50.306;8.570;2023-04-12T01:36:16;97201.56;;;7.76;73.67
20987;BME280;10652;50.306;8.570;2023-04-12T01:40:19;97194.78;;;7.72;74.57
20987;BME280;10652;50.306;8.570;2023-04-12T01:44:22;97184.63;;;7.66;75.76
20987;BME280;10652;50.306;8.570;2023-04-12T01:48:24;97178.94;;;7.58;76.76
20987;BME280;10652;50.306;8.570;2023-04-12T01:52:30;97168.84;;;7.51;77.51
20987;BME280;10652;50.306;8.570;2023-04-12T01:56:38;97159.41;;;7.48;78.83
20987;BME280;10652;50.306;8.570;2023-04-12T02:00:43;97158.00;;;7.41;79.74
20987;BME280;10652;50.306;8.570;2023-04-12T02:04:46;97160.28;;;7.30;81.14
20987;BME280;10652;50.306;8.570;2023-04-12T02:08:48;97148.16;;;7.29;82.33
20987;BME280;10652;50.306;8.570;2023-04-12T02:12:50;97148.00;;;7.32;83.41
20987;BME280;10652;50.306;8.570;2023-04-12T02:16:52;97147.06;;;7.33;83.81
20987;BME280;10652;50.306;8.570;2023-04-12T02:20:55;97139.41;;;7.30;84.63
20987;BME280;10652;50.306;8.570;2023-04-12T02:24:57;97130.66;;;7.31;85.17
20987;BME280;10652;50.306;8.570;2023-04-12T02:29:00;97121.03;;;7.31;85.69
20987;BME280;10652;50.306;8.570;2023-04-12T02:33:02;97106.50;;;7.26;86.24
20987;BME280;10652;50.306;8.570;2023-04-12T02:37:09;97090.13;;;7.22;86.58
20987;BME280;10652;50.306;8.570;2023-04-12T02:41:18;97074.09;;;7.13;87.60
20987;BME280;10652;50.306;8.570;2023-04-12T02:45:21;97084.75;;;7.08;88.89
20987;BME280;10652;50.306;8.570;2023-04-12T02:49:25;97080.56;;;7.04;89.37
20987;BME280;10652;50.306;8.570;2023-04-12T02:53:28;97082.66;;;6.98;90.80
20987;BME280;10652;50.306;8.570;2023-04-12T02:57:44;97075.78;;;6.95;91.32
20987;BME280;10652;50.306;8.570;2023-04-12T03:01:47;97061.28;;;6.89;92.26
20987;BME280;10652;50.306;8.570;2023-04-12T03:06:01;97045.00;;;6.84;93.78
20987;BME280;10652;50.306;8.570;2023-04-12T03:10:03;97033.66;;;6.85;95.97
20987;BME280;10652;50.306;8.570;2023-04-12T03:14:11;97019.88;;;6.82;96.27
20987;BME280;10652;50.306;8.570;2023-04-12T03:18:15;97020.81;;;6.81;97.41
20987;BME280;10652;50.306;8.570;2023-04-12T03:22:21;97016.56;;;6.78;98.14
20987;BME280;10652;50.306;8.570;2023-04-12T03:26:28;97014.59;;;6.83;98.95
20987;BME280;10652;50.306;8.570;2023-04-12T03:30:34;97002.78;;;6.76;99.08
20987;BME280;10652;50.306;8.570;2023-04-12T03:34:36;97005.44;;;6.75;99.97
20987;BME280;10652;50.306;8.570;2023-04-12T03:38:45;96994.16;;;6.74;100.00
20987;BME280;10652;50.306;8.570;2023-04-12T03:42:48;96982.03;;;6.73;100.00
20987;BME280;10652;50.306;8.570;2023-04-12T03:46:50;96983.66;;;6.76;100.00
20987;BME280;10652;50.306;8.570;2023-04-12T03:50:53;96969.59;;;6.78;100.00
20987;BME280;10652;50.306;8.570;2023-04-12T03:54:56;96956.56;;;6.78;100.00
20987;BME280;10652;50.306;8.570;2023-04-12T03:59:01;96952.41;;;6.74;100.00
20987;BME280;10652;50.306;8.570;2023-04-12T04:03:04;96949.09;;;6.71;100.00
20987;BME280;10652;50.306;8.570;2023-04-12T04:07:13;96937.19;;;6.65;100.00
20987;BME280;10652;50.306;8.570;2023-04-12T04:11:19;96925.97;;;6.63;100.00
20987;BME280;10652;50.306;8.570;2023-04-12T04:15:25;96913.94;;;6.61;100.00
20987;BME280;10652;50.306;8.570;2023-04-12T04:19:28;96904.50;;;6.58;100.00
20987;BME280;10652;50.306;8.570;2023-04-12T04:23:31;96901.28;;;6.53;100.00
20987;BME280;10652;50.306;8.570;2023-04-12T04:27:40;96893.31;;;6.56;100.00
20987;BME280;10652;50.306;8.570;2023-04-12T04:31:45;96880.25;;;6.56;100.00
20987;BME280;10652;50.306;8.570;2023-04-12T04:35:49;96883.78;;;6.55;100.00
20987;BME280;10652;50.306;8.570;2023-04-12T04:40:00;96868.75;;;6.60;100.00
20987;BME280;10652;50.306;8.570;2023-04-12T04:44:15;96861.59;;;6.64;100.00
20987;BME280;10652;50.306;8.570;2023-04-12T04:48:28;96858.25;;;6.62;100.00
20987;BME280;10652;50.306;8.570;2023-04-12T04:52:30;96855.84;;;6.57;100.00
20987;BME280;10652;50.306;8.570;2023-04-12T04:56:38;96842.81;;;6.57;100.00
20987;BME280;10652;50.306;8.570;2023-04-12T05:00:40;96837.59;;;6.57;100.00
20987;BME280;10652;50.306;8.570;2023-04-12T05:04:46;96818.88;;;6.66;100.00
20987;BME280;10652;50.306;8.570;2023-04-12T05:08:52;96803.88;;;6.70;100.00
20987;BME280;10652;50.306;8.570;2023-04-12T05:12:55;96811.78;;;6.68;100.00
20987;BME280;10652;50.306;8.570;2023-04-12T05:16:58;96800.00;;;6.61;100.00
20987;BME280;10652;50.306;8.570;2023-04-12T05:21:04;96792.34;;;6.58;100.00
20987;BME280;10652;50.306;8.570;2023-04-12T05:25:07;96783.66;;;6.58;100.00
20987;BME280;10652;50.306;8.570;2023-04-12T05:29:15;96772.22;;;6.60;100.00
20987;BME280;10652;50.306;8.570;2023-04-12T05:33:17;96771.22;;;6.63;100.00
20987;BME280;10652;50.306;8.570;2023-04-12T05:37:21;96770.28;;;6.64;100.00
20987;BME280;10652;50.306;8.570;2023-04-12T05:41:23;96776.94;;;6.69;100.00
20987;BME280;10652;50.306;8.570;2023-04-12T05:45:25;96760.53;;;6.67;100.00
20987;BME280;10652;50.306;8.570;2023-04-12T05:49:28;96753.78;;;6.63;100.00
20987;BME280;10652;50.306;8.570;2023-04-12T05:53:33;96746.72;;;6.65;100.00
20987;BME280;10652;50.306;8.570;2023-04-12T05:57:38;96750.69;;;6.72;100.00
20987;BME280;10652;50.306;8.570;2023-04-12T06:01:41;96733.38;;;6.71;100.00
20987;BME280;10652;50.306;8.570;2023-04-12T06:05:43;96723.53;;;6.76;100.00
20987;BME280;10652;50.306;8.570;2023-04-12T06:09:45;96718.16;;;7.42;100.00
20987;BME280;10652;50.306;8.570;2023-04-12T06:13:48;96712.19;;;7.40;100.00
20987;BME280;10652;50.306;8.570;2023-04-12T06:17:50;96703.09;;;7.16;100.00
20987;BME280;10652;50.306;8.570;2023-04-12T06:21:52;96701.16;;;7.04;100.00
20987;BME280;10652;50.306;8.570;2023-04-12T06:25:55;96681.84;;;6.90;100.00
20987;BME280;10652;50.306;8.570;2023-04-12T06:29:57;96684.22;;;6.79;100.00
20987;BME280;10652;50.306;8.570;2023-04-12T06:34:00;96673.25;;;6.73;100.00
20987;BME280;10652;50.306;8.570;2023-04-12T06:38:02;96671.91;;;6.66;100.00
20987;BME280;10652;50.306;8.570;2023-04-12T06:42:04;96682.41;;;6.64;100.00
20987;BME280;10652;50.306;8.570;2023-04-12T06:46:06;96673.91;;;6.61;100.00
20987;BME280;10652;50.306;8.570;2023-04-12T06:50:09;96668.03;;;6.57;100.00
20987;BME280;10652;50.306;8.570;2023-04-12T06:54:12;96657.72;;;6.54;100.00
20987;BME280;10652;50.306;8.570;2023-04-12T06:58:15;96648.97;;;6.55;100.00
20987;BME280;10652;50.306;8.570;2023-04-12T07:02:17;96641.09;;;6.57;100.00
20987;BME280;10652;50.306;8.570;2023-04-12T07:06:19;96638.41;;;6.58;100.00
20987;BME280;10652;50.306;8.570;2023-04-12T07:10:26;96628.13;;;6.55;100.00
20987;BME280;10652;50.306;8.570;2023-04-12T07:14:28;96620.47;;;6.52;100.00
20987;BME280;10652;50.306;8.570;2023-04-12T07:18:30;96616.34;;;6.48;100.00
20987;BME280;10652;50.306;8.570;2023-04-12T07:22:32;96593.59;;;6.50;100.00
20987;BME280;10652;50.306;8.570;2023-04-12T07:26:34;96598.69;;;6.53;100.00
20987;BME280;10652;50.306;8.570;2023-04-12T07:30:40;96586.22;;;6.58;100.00
20987;BME280;10652;50.306;8.570;2023-04-12T07:34:42;96580.66;;;6.64;100.00
20987;BME280;10652;50.306;8.570;2023-04-12T07:38:44;96561.28;;;6.68;100.00
20987;BME280;10652;50.306;8.570;2023-04-12T07:42:46;96555.94;;;6.71;100.00
20987;BME280;10652;50.306;8.570;2023-04-12T07:46:48;96541.00;;;6.73;100.00
20987;BME280;10652;50.306;8.570;2023-04-12T07:50:50;96539.00;;;6.78;100.00
20987;BME280;10652;50.306;8.570;2023-04-12T07:54:53;96530.06;;;6.82;100.00
20987;BME280;10652;50.306;8.570;2023-04-12T07:58:55;96522.16;;;6.84;100.00
20987;BME280;10652;50.306;8.570;2023-04-12T08:02:58;96519.97;;;6.76;100.00
20987;BME280;10652;50.306;8.570;2023-04-12T08:07:01;96520.53;;;6.81;100.00
20987;BME280;10652;50.306;8.570;2023-04-12T08:11:03;96515.31;;;6.81;100.00
20987;BME280;10652;50.306;8.570;2023-04-12T08:15:07;96503.88;;;6.84;100.00
20987;BME280;10652;50.306;8.570;2023-04-12T08:19:10;96502.13;;;6.84;100.00
20987;BME280;10652;50.306;8.570;2023-04-12T08:23:12;96498.59;;;6.85;100.00
20987;BME280;10652;50.306;8.570;2023-04-12T08:27:14;96487.38;;;6.83;100.00
20987;BME280;10652;50.306;8.570;2023-04-12T08:31:17;96478.25;;;6.90;100.00
20987;BME280;10652;50.306;8.570;2023-04-12T08:35:20;96488.63;;;6.92;100.00
20987;BME280;10652;50.306;8.570;2023-04-12T08:39:23;96485.00;;;6.95;100.00
20987;BME280;10652;50.306;8.570;2023-04-12T08:43:27;96477.19;;;6.95;100.00
20987;BME280;10652;50.306;8.570;2023-04-12T08:47:31;96475.38;;;6.95;100.00
20987;BME280;10652;50.306;8.570;2023-04-12T08:51:33;96466.94;;;7.06;100.00
20987;BME280;10652;50.306;8.570;2023-04-12T08:55:38;96461.09;;;7.16;100.00
20987;BME280;10652;50.306;8.570;2023-04-12T08:59:41;96466.91;;;7.21;100.00
20987;BME280;10652;50.306;8.570;2023-04-12T09:03:44;96446.31;;;7.31;100.00
20987;BME280;10652;50.306;8.570;2023-04-12T09:07:47;96451.91;;;7.39;100.00
20987;BME280;10652;50.306;8.570;2023-04-12T09:11:49;96450.78;;;7.43;100.00
20987;BME280;10652;50.306;8.570;2023-04-12T09:15:51;96445.00;;;7.52;100.00
20987;BME280;10652;50.306;8.570;2023-04-12T09:19:53;96442.03;;;7.58;100.00
20987;BME280;10652;50.306;8.570;2023-04-12T09:24:07;96424.09;;;7.66;100.00
20987;BME280;10652;50.306;8.570;2023-04-12T09:28:24;96420.72;;;7.78;100.00
20987;BME280;10652;50.306;8.570;2023-04-12T09:32:27;96407.38;;;7.83;100.00
20987;BME280;10652;50.306;8.570;2023-04-12T09:36:36;96389.44;;;7.91;100.00
20987;BME280;10652;50.306;8.570;2023-04-12T09:40:39;96395.69;;;8.03;100.00
20987;BME280;10652;50.306;8.570;2023-04-12T09:44:41;96395.19;;;8.10;100.00
20987;BME280;10652;50.306;8.570;2023-04-12T09:48:51;96381.81;;;8.15;100.00
20987;BME280;10652;50.306;8.570;2023-04-12T09:52:54;96378.09;;;8.19;100.00
20987;BME280;10652;50.306;8.570;2023-04-12T09:56:57;96373.50;;;8.22;100.00
20987;BME280;10652;50.306;8.570;2023-04-12T10:01:01;96366.31;;;8.26;100.00
20987;BME280;10652;50.306;8.570;2023-04-12T10:05:04;96359.66;;;8.35;100.00
20987;BME280;10652;50.306;8.570;2023-04-12T10:09:07;96352.34;;;8.40;100.00
20987;BME280;10652;50.306;8.570;2023-04-12T10:13:11;96369.22;;;8.48;100.00
20987;BME280;10652;50.306;8.570;2023-04-12T10:17:13;96349.63;;;8.54;100.00
20987;BME280;10652;50.306;8.570;2023-04-12T10:21:16;96341.69;;;8.55;100.00
20987;BME280;10652;50.306;8.570;2023-04-12T10:25:23;96336.34;;;8.57;100.00
20987;BME280;10652;50.306;8.570;2023-04-12T10:29:28;96338.75;;;8.60;100.00
20987;BME280;10652;50.306;8.570;2023-04-12T10:33:31;96333.00;;;8.67;100.00
20987;BME280;10652;50.306;8.570;2023-04-12T10:38:01;96323.41;;;8.81;100.00
20987;BME280;10652;50.306;8.570;2023-04-12T10:50:40;96306.03;;;8.92;100.00
20987;BME280;10652;50.306;8.570;2023-04-12T10:54:42;96284.75;;;9.09;100.00
20987;BME280;10652;50.306;8.570;2023-04-12T11:03:06;96293.97;;;9.77;100.00
20987;BME280;10652;50.306;8.570;2023-04-12T11:07:13;96289.56;;;9.77;100.00
20987;BME280;10652;50.306;8.570;2023-04-12T11:11:40;96301.31;;;9.72;100.00
20987;BME280;10652;50.306;8.570;2023-04-12T11:15:42;96293.97;;;9.77;100.00
20987;BME280;10652;50.306;8.570;2023-04-12T11:19:56;96281.94;;;9.98;100.00
20987;BME280;10652;50.306;8.570;2023-04-12T11:23:59;96285.69;;;10.07;100.00
20987;BME280;10652;50.306;8.570;2023-04-12T11:28:01;96281.88;;;10.11;100.00
20987;BME280;10652;50.306;8.570;2023-04-12T11:32:09;96286.28;;;10.34;100.00
20987;BME280;10652;50.306;8.570;2023-04-12T11:36:13;96280.59;;;10.51;100.00
20987;BME280;10652;50.306;8.570;2023-04-12T11:40:15;96280.06;;;10.70;100.00
20987;BME280;10652;50.306;8.570;2023-04-12T11:44:17;96264.34;;;11.03;100.00
20987;BME280;10652;50.306;8.570;2023-04-12T11:48:20;96265.22;;;11.15;100.00
20987;BME280;10652;50.306;8.570;2023-04-12T11:52:30;96267.47;;;11.53;100.00
20987;BME280;10652;50.306;8.570;2023-04-12T11:56:32;96276.44;;;11.61;100.00
20987;BME280;10652;50.306;8.570;2023-04-12T12:00:34;96266.75;;;11.51;100.00
20987;BME280;10652;50.306;8.570;2023-04-12T12:04:39;96257.91;;;11.52;100.00
20987;BME280;10652;50.306;8.570;2023-04-12T12:08:42;96263.16;;;11.52;100.00
20987;BME280;10652;50.306;8.570;2023-04-12T12:12:44;96244.25;;;11.69;100.00
20987;BME280;10652;50.306;8.570;2023-04-12T12:16:57;96244.34;;;12.10;100.00
20987;BME280;10652;50.306;8.570;2023-04-12T12:20:59;96249.91;;;12.39;100.00
20987;BME280;10652;50.306;8.570;2023-04-12T12:25:02;96245.78;;;12.46;100.00
20987;BME280;10652;50.306;8.570;2023-04-12T12:29:04;96239.38;;;12.39;100.00
20987;BME280;10652;50.306;8.570;2023-04-12T12:33:06;96237.50;;;12.19;100.00
20987;BME280;10652;50.306;8.570;2023-04-12T12:37:11;96241.75;;;11.99;100.00
20987;BME280;10652;50.306;8.570;2023-04-12T12:41:21;96238.97;;;11.80;100.00
20987;BME280;10652;50.306;8.570;2023-04-12T12:45:25;96240.19;;;11.65;100.00
20987;BME280;10652;50.306;8.570;2023-04-12T12:49:28;96247.88;;;11.46;100.00
20987;BME280;10652;50.306;8.570;2023-04-12T12:53:30;96233.53;;;11.27;100.00
20987;BME280;10652;50.306;8.570;2023-04-12T12:57:32;96224.97;;;11.25;100.00
20987;BME280;10652;50.306;8.570;2023-04-12T13:01:36;96212.50;;;11.27;100.00
20987;BME280;10652;50.306;8.570;2023-04-12T13:05:38;96204.63;;;11.39;100.00
20987;BME280;10652;50.306;8.570;2023-04-12T13:09:40;96213.91;;;11.54;100.00
20987;BME280;10652;50.306;8.570;2023-04-12T13:13:42;96224.97;;;11.79;100.00
20987;BME280;10652;50.306;8.570;2023-04-12T13:17:44;96228.75;;;11.98;100.00
20987;BME280;10652;50.306;8.570;2023-04-12T13:21:46;96225.75;;;12.02;100.00
20987;BME280;10652;50.306;8.570;2023-04-12T13:25:51;96217.00;;;12.02;100.00
20987;BME280;10652;50.306;8.570;2023-04-12T13:29:53;96210.78;;;12.03;100.00
20987;BME280;10652;50.306;8.570;2023-04-12T13:33:58;96220.69;;;11.99;100.00
20987;BME280;10652;50.306;8.570;2023-04-12T13:38:01;96195.97;;;11.91;100.00
20987;BME280;10652;50.306;8.570;2023-04-12T13:42:03;96194.78;;;11.95;100.00
20987;BME280;10652;50.306;8.570;2023-04-12T13:46:05;96196.94;;;12.21;100.00
20987;BME280;10652;50.306;8.570;2023-04-12T13:50:08;96200.13;;;12.57;100.00
20987;BME280;10652;50.306;8.570;2023-04-12T13:54:10;96205.38;;;12.57;100.00
20987;BME280;10652;50.306;8.570;2023-04-12T13:58:12;96197.72;;;12.54;100.00
20987;BME280;10652;50.306;8.570;2023-04-12T14:02:15;96187.19;;;12.54;98.87
20987;BME280;10652;50.306;8.570;2023-04-12T14:06:17;96174.91;;;12.64;98.93
20987;BME280;10652;50.306;8.570;2023-04-12T14:10:19;96179.16;;;12.76;98.95
20987;BME280;10652;50.306;8.570;2023-04-12T14:14:21;96175.25;;;12.71;98.90
20987;BME280;10652;50.306;8.570;2023-04-12T14:18:23;96178.34;;;12.55;98.54
20987;BME280;10652;50.306;8.570;2023-04-12T14:22:25;96183.59;;;12.34;98.60
20987;BME280;10652;50.306;8.570;2023-04-12T14:26:28;96163.13;;;12.17;99.09
20987;BME280;10652;50.306;8.570;2023-04-12T14:30:30;96172.00;;;12.05;100.00
20987;BME280;10652;50.306;8.570;2023-04-12T14:34:32;96175.28;;;11.97;100.00
20987;BME280;10652;50.306;8.570;2023-04-12T14:38:35;96174.56;;;11.95;100.00
20987;BME280;10652;50.306;8.570;2023-04-12T14:42:37;96170.81;;;11.77;100.00
20987;BME280;10652;50.306;8.570;2023-04-12T14:46:39;96170.03;;;11.65;100.00
20987;BME280;10652;50.306;8.570;2023-04-12T14:50:41;96178.53;;;11.58;100.00
20987;BME280;10652;50.306;8.570;2023-04-12T14:54:43;96184.97;;;11.54;100.00
20987;BME280;10652;50.306;8.570;2023-04-12T14:58:45;96177.19;;;11.63;100.00
20987;BME280;10652;50.306;8.570;2023-04-12T15:02:47;96177.78;;;11.67;100.00
20987;BME280;10652;50.306;8.570;2023-04-12T15:06:50;96178.13;;;11.73;100.00
20987;BME280;10652;50.306;8.570;2023-04-12T15:10:53;96180.34;;;11.89;100.00
20987;BME280;10652;50.306;8.570;2023-04-12T15:14:55;96191.66;;;12.01;100.00
20987;BME280;10652;50.306;8.570;2023-04-12T15:18:58;96208.53;;;11.98;99.82
20987;BME280;10652;50.306;8.570;2023-04-12T15:23:07;96229.41;;;11.79;97.78
20987;BME280;10652;50.306;8.570;2023-04-12T15:27:09;96327.47;;;11.36;84.62
20987;BME280;10652;50.306;8.570;2023-04-12T15:31:11;96320.97;;;10.26;82.61
20987;BME280;10652;50.306;8.570;2023-04-12T15:35:14;96302.16;;;9.59;86.44
20987;BME280;10652;50.306;8.570;2023-04-12T15:39:27;96277.91;;;9.32;87.07
20987;BME280;10652;50.306;8.570;2023-04-12T15:43:29;96252.53;;;9.33;89.82
20987;BME280;10652;50.306;8.570;2023-04-12T15:47:31;96224.44;;;9.71;91.95
20987;BME280;10652;50.306;8.570;2023-04-12T15:51:34;96245.59;;;10.04;92.18
20987;BME280;10652;50.306;8.570;2023-04-12T15:55:42;96260.88;;;10.11;91.47
20987;BME280;10652;50.306;8.570;2023-04-12T15:59:44;96261.97;;;10.08;91.49
20987;BME280;10652;50.306;8.570;2023-04-12T16:03:46;96260.03;;;10.10;91.12
20987;BME280;10652;50.306;8.570;2023-04-12T16:07:50;96261.56;;;10.25;91.57
20987;BME280;10652;50.306;8.570;2023-04-12T16:11:52;96259.78;;;10.37;91.41
20987;BME280;10652;50.306;8.570;2023-04-12T16:15:54;96262.81;;;10.43;90.13
20987;BME280;10652;50.306;8.570;2023-04-12T16:19:56;96267.09;;;10.44;89.81
20987;BME280;10652;50.306;8.570;2023-04-12T16:23:59;96280.22;;;10.44;89.57
20987;BME280;10652;50.306;8.570;2023-04-12T16:28:02;96275.94;;;10.43;90.51
20987;BME280;10652;50.306;8.570;2023-04-12T16:32:04;96280.28;;;10.32;89.91
20987;BME280;10652;50.306;8.570;2023-04-12T16:36:08;96278.47;;;10.21;89.99
20987;BME280;10652;50.306;8.570;2023-04-12T16:40:10;96268.91;;;10.20;89.78
20987;BME280;10652;50.306;8.570;2023-04-12T16:44:16;96272.03;;;10.25;89.38
20987;BME280;10652;50.306;8.570;2023-04-12T16:48:19;96266.31;;;10.31;89.12
20987;BME280;10652;50.306;8.570;2023-04-12T16:52:23;96261.81;;;10.33;88.93
20987;BME280;10652;50.306;8.570;2023-04-12T16:56:25;96262.03;;;10.30;88.86
20987;BME280;10652;50.306;8.570;2023-04-12T17:00:27;96256.50;;;10.22;87.80
20987;BME280;10652;50.306;8.570;2023-04-12T17:04:30;96257.94;;;10.15;87.79
20987;BME280;10652;50.306;8.570;2023-04-12T17:08:32;96263.63;;;10.09;87.38
20987;BME280;10652;50.306;8.570;2023-04-12T17:12:34;96261.22;;;10.06;87.00
20987;BME280;10652;50.306;8.570;2023-04-12T17:16:36;96260.00;;;9.99;86.47
20987;BME280;10652;50.306;8.570;2023-04-12T17:20:39;96261.41;;;9.92;86.18
20987;BME280;10652;50.306;8.570;2023-04-12T17:24:42;96261.81;;;9.86;85.62
20987;BME280;10652;50.306;8.570;2023-04-12T17:28:44;96270.25;;;9.78;85.52
20987;BME280;10652;50.306;8.570;2023-04-12T17:32:46;96269.22;;;9.68;85.24
20987;BME280;10652;50.306;8.570;2023-04-12T17:36:49;96270.59;;;9.61;85.36
20987;BME280;10652;50.306;8.570;2023-04-12T17:40:51;96270.31;;;9.53;85.42
20987;BME280;10652;50.306;8.570;2023-04-12T17:44:53;96267.69;;;9.53;91.23
20987;BME280;10652;50.306;8.570;2023-04-12T17:48:55;96281.81;;;9.76;88.54
20987;BME280;10652;50.306;8.570;2023-04-12T17:52:59;96284.75;;;9.58;86.12
20987;BME280;10652;50.306;8.570;2023-04-12T17:57:03;96294.66;;;9.42;85.82
20987;BME280;10652;50.306;8.570;2023-04-12T18:01:05;96302.41;;;9.31;86.36
20987;BME280;10652;50.306;8.570;2023-04-12T18:05:08;96317.97;;;9.22;86.50
20987;BME280;10652;50.306;8.570;2023-04-12T18:09:10;96327.59;;;9.21;87.52
20987;BME280;10652;50.306;8.570;2023-04-12T18:13:13;96386.91;;;9.22;85.73
20987;BME280;10652;50.306;8.570;2023-04-12T18:17:15;96415.19;;;9.04;83.92
20987;BME280;10652;50.306;8.570;2023-04-12T18:21:17;96434.41;;;8.78;84.86
20987;BME280;10652;50.306;8.570;2023-04-12T18:25:22;96467.63;;;8.63;87.37
20987;BME280;10652;50.306;8.570;2023-04-12T18:29:25;96465.28;;;8.46;89.45
20987;BME280;10652;50.306;8.570;2023-04-12T18:33:27;96470.19;;;8.10;92.37
20987;BME280;10652;50.306;8.570;2023-04-12T18:37:31;96477.31;;;7.94;94.28
20987;BME280;10652;50.306;8.570;2023-04-12T18:41:33;96494.28;;;7.87;94.71
20987;BME280;10652;50.306;8.570;2023-04-12T18:45:38;96511.38;;;7.78;92.62
20987;BME280;10652;50.306;8.570;2023-04-12T18:49:41;96510.16;;;7.69;91.10
20987;BME280;10652;50.306;8.570;2023-04-12T18:53:43;96508.44;;;7.54;87.65
20987;BME280;10652;50.306;8.570;2023-04-12T18:57:45;96504.03;;;7.41;85.16
20987;BME280;10652;50.306;8.570;2023-04-12T19:01:50;96500.38;;;7.29;84.88
20987;BME280;10652;50.306;8.570;2023-04-12T19:05:55;96525.94;;;7.24;85.26
20987;BME280;10652;50.306;8.570;2023-04-12T19:09:58;96539.16;;;7.21;84.59
20987;BME280;10652;50.306;8.570;2023-04-12T19:14:00;96560.22;;;7.18;85.91
20987;BME280;10652;50.306;8.570;2023-04-12T19:18:03;96547.34;;;7.15;87.08
20987;BME280;10652;50.306;8.570;2023-04-12T19:22:05;96543.22;;;7.11;87.06
20987;BME280;10652;50.306;8.570;2023-04-12T19:26:07;96523.00;;;7.14;88.49
20987;BME280;10652;50.306;8.570;2023-04-12T19:30:09;96493.28;;;7.17;87.26
20987;BME280;10652;50.306;8.570;2023-04-12T19:34:13;96507.25;;;7.16;85.64
20987;BME280;10652;50.306;8.570;2023-04-12T19:38:18;96503.88;;;7.14;85.74
20987;BME280;10652;50.306;8.570;2023-04-12T19:42:22;96488.97;;;7.16;86.53
20987;BME280;10652;50.306;8.570;2023-04-12T19:46:24;96479.25;;;7.18;86.25
20987;BME280;10652;50.306;8.570;2023-04-12T19:50:27;96489.16;;;7.13;85.64
20987;BME280;10652;50.306;8.570;2023-04-12T19:54:31;96486.72;;;7.10;84.69
20987;BME280;10652;50.306;8.570;2023-04-12T19:58:34;96494.72;;;7.07;84.84
20987;BME280;10652;50.306;8.570;2023-04-12T20:02:36;96503.81;;;7.00;83.04
20987;BME280;10652;50.306;8.570;2023-04-12T20:06:38;96490.38;;;6.91;81.28
20987;BME280;10652;50.306;8.570;2023-04-12T20:10:42;96503.88;;;6.84;80.80
20987;BME280;10652;50.306;8.570;2023-04-12T20:14:44;96501.88;;;6.73;78.62
20987;BME280;10652;50.306;8.570;2023-04-12T20:18:46;96498.00;;;6.65;78.77
20987;BME280;10652;50.306;8.570;2023-04-12T20:22:48;96504.06;;;6.65;79.42
20987;BME280;10652;50.306;8.570;2023-04-12T20:26:53;96509.72;;;6.58;80.29
20987;BME280;10652;50.306;8.570;2023-04-12T20:30:55;96513.00;;;6.45;80.22
20987;BME280;10652;50.306;8.570;2023-04-12T20:34:58;96512.41;;;6.40;80.83
20987;BME280;10652;50.306;8.570;2023-04-12T20:39:00;96514.72;;;6.31;80.27
20987;BME280;10652;50.306;8.570;2023-04-12T20:43:03;96514.47;;;6.18;80.83
20987;BME280;10652;50.306;8.570;2023-04-12T20:47:06;96516.66;;;6.10;81.36
20987;BME280;10652;50.306;8.570;2023-04-12T20:51:09;96520.44;;;6.04;82.27
20987;BME280;10652;50.306;8.570;2023-04-12T20:55:17;96523.22;;;6.01;82.30
20987;BME280;10652;50.306;8.570;2023-04-12T20:59:19;96542.38;;;6.00;82.91
20987;BME280;10652;50.306;8.570;2023-04-12T21:03:24;96546.22;;;5.93;82.65
20987;BME280;10652;50.306;8.570;2023-04-12T21:07:28;96537.97;;;5.85;82.99
20987;BME280;10652;50.306;8.570;2023-04-12T21:11:30;96541.63;;;5.81;83.07
20987;BME280;10652;50.306;8.570;2023-04-12T21:15:33;96539.03;;;5.81;83.47
20987;BME280;10652;50.306;8.570;2023-04-12T21:19:36;96532.78;;;5.85;83.75
20987;BME280;10652;50.306;8.570;2023-04-12T21:23:42;96546.38;;;5.90;83.60
20987;BME280;10652;50.306;8.570;2023-04-12T21:27:44;96547.31;;;5.89;83.56
20987;BME280;10652;50.306;8.570;2023-04-12T21:31:47;96551.94;;;5.84;83.78
20987;BME280;10652;50.306;8.570;2023-04-12T21:35:53;96551.28;;;5.96;86.55
20987;BME280;10652;50.306;8.570;2023-04-12T21:39:55;96546.66;;;6.01;84.83
20987;BME280;10652;50.306;8.570;2023-04-12T21:43:57;96541.75;;;5.95;83.91
20987;BME280;10652;50.306;8.570;2023-04-12T21:47:59;96539.50;;;5.89;84.32
20987;BME280;10652;50.306;8.570;2023-04-12T21:52:02;96558.81;;;5.85;84.23